Time;durP1;ratioP1;P1;durP2;ratioP2;P2;SDS_P1;SDS_P2;PMS_P1;PMS_P2;Temp;Humidity;BMP_temperature;BMP_pressure;BME280_temperature;BME280_humidity;BME280_pressure;Samples;Min_cycle;Max_cycle;Signal;HPM_P1;HPM_P2
2022/03/11 00:01:42;;;;;;;;;18.00;17.00;;;;;15.11;41.83;100992.22;5015048;28;46494;-84
2022/03/11 00:04:08;;;;;;;;;20.33;17.00;;;;;15.04;41.97;100978.28;5084188;27;45520;-84
2022/03/11 00:06:33;;;;;;;;;23.33;17.67;;;;;14.78;41.76;100937.72;5015902;28;45837;-84
2022/03/11 00:08:58;;;;;;;;;16.00;14.67;;;;;15.05;41.72;100984.50;5014667;28;45319;-84
2022/03/11 00:11:24;;;;;;;;;18.00;17.67;;;;;14.73;41.87;100921.03;5016100;28;46254;-85
2022/03/11 00:13:49;;;;;;;;;15.00;14.33;;;;;14.89;42.09;100953.22;5014492;28;45606;-84
2022/03/11 00:16:15;;;;;;;;;14.00;13.67;;;;;14.92;41.75;100961.06;5016217;28;45322;-84
2022/03/11 00:18:40;;;;;;;;;17.00;13.67;;;;;14.79;42.19;100946.63;5016508;28;45319;-85
2022/03/11 00:21:08;;;;;;;;;12.33;12.33;;;;;14.47;41.84;100887.66;5035448;28;46498;-85
2022/03/11 00:23:33;;;;;;;;;14.33;14.33;;;;;14.67;41.78;100924.06;5035973;28;45434;-84
2022/03/11 00:25:58;;;;;;;;;14.33;14.33;;;;;14.89;42.07;100949.66;5034411;28;45320;-84
2022/03/11 00:28:24;;;;;;;;;17.33;13.67;;;;;14.50;42.11;100875.88;5018556;28;45484;-85
2022/03/11 00:30:49;;;;;;;;;18.67;17.33;;;;;14.58;42.17;100889.72;5017534;28;47303;-84
2022/03/11 00:33:14;;;;;;;;;17.67;17.00;;;;;14.70;41.97;100901.56;5035919;28;45491;-84
2022/03/11 00:35:40;;;;;;;;;15.67;13.67;;;;;14.56;41.85;100878.22;5034700;28;45377;-84
2022/03/11 00:38:05;;;;;;;;;20.67;17.00;;;;;14.45;42.24;100861.88;5034272;27;45229;-84
2022/03/11 00:40:31;;;;;;;;;16.00;15.67;;;;;14.33;42.15;100840.19;5023051;28;45436;-84
2022/03/11 00:42:56;;;;;;;;;17.00;17.00;;;;;14.90;42.16;100941.50;5035877;28;45389;-84
2022/03/11 00:45:22;;;;;;;;;15.33;15.00;;;;;14.88;42.40;100938.06;5013466;28;45361;-84
2022/03/11 00:47:48;;;;;;;;;16.33;15.00;;;;;14.53;42.69;100875.69;5016108;28;45215;-84
2022/03/11 00:50:13;;;;;;;;;16.33;15.33;;;;;14.48;42.42;100869.72;5030099;28;45382;-84
2022/03/11 00:52:41;;;;;;;;;16.67;15.33;;;;;14.88;42.30;100943.41;5034358;28;45841;-84
2022/03/11 00:55:07;;;;;;;;;17.00;14.33;;;;;14.65;42.47;100906.34;5050939;28;45437;-84
2022/03/11 00:57:33;;;;;;;;;21.00;16.33;;;;;14.46;42.80;100877.84;5042023;28;45561;-84
2022/03/11 00:59:58;;;;;;;;;16.33;16.33;;;;;13.96;42.74;100801.22;5048253;28;45413;-84
2022/03/11 01:02:23;;;;;;;;;18.00;15.67;;;;;14.23;42.75;100851.50;5037340;28;45506;-84
2022/03/11 01:04:49;;;;;;;;;20.33;17.00;;;;;14.22;42.70;100839.06;5035068;28;45371;-84
2022/03/11 01:07:15;;;;;;;;;13.33;13.33;;;;;14.30;42.52;100852.88;5035860;28;45387;-84
2022/03/11 01:09:40;;;;;;;;;18.33;15.33;;;;;14.60;42.79;100892.31;5033744;28;46265;-84
2022/03/11 01:12:06;;;;;;;;;15.33;13.33;;;;;14.23;42.41;100838.09;5035309;28;45240;-84
2022/03/11 01:14:32;;;;;;;;;14.33;11.67;;;;;14.31;42.67;100841.22;5017141;28;45362;-84
2022/03/11 01:16:57;;;;;;;;;14.00;14.00;;;;;14.28;42.95;100836.00;5035696;28;45593;-84
2022/03/11 01:19:23;;;;;;;;;13.67;13.67;;;;;14.27;42.93;100831.63;5035138;28;46161;-84
2022/03/11 01:21:49;;;;;;;;;13.67;13.67;;;;;14.58;42.73;100879.00;5035027;28;45299;-85
2022/03/11 01:24:17;;;;;;;;;15.00;12.33;;;;;14.81;42.84;100914.34;5035213;28;45338;-84
2022/03/11 01:26:42;;;;;;;;;15.67;13.33;;;;;14.23;42.85;100820.19;5009665;28;45364;-84
2022/03/11 01:29:08;;;;;;;;;10.67;10.67;;;;;14.29;42.85;100825.22;5014982;28;45362;-84
2022/03/11 01:31:33;;;;;;;;;14.67;10.33;;;;;14.54;43.06;100872.97;4997282;28;45456;-84
2022/03/11 01:33:58;;;;;;;;;16.67;14.67;;;;;14.17;43.15;100815.22;5015190;28;45269;-84
2022/03/11 01:36:24;;;;;;;;;16.67;13.67;;;;;14.62;42.90;100901.16;5015577;28;45334;-84
2022/03/11 01:38:49;;;;;;;;;13.00;10.00;;;;;14.55;43.24;100892.59;5015108;28;45309;-84
2022/03/11 01:41:15;;;;;;;;;14.33;12.33;;;;;14.45;43.39;100886.88;5013846;28;45387;-84
2022/03/11 01:44:12;;;;;;;;;14.67;13.00;;;;;14.31;43.42;100866.22;5015376;28;45330;-84
2022/03/11 01:46:38;;;;;;;;;12.67;12.67;;;;;14.35;43.44;100888.31;4954456;28;45403;-84
2022/03/11 01:49:09;;;;;;;;;14.00;13.33;;;;;14.08;43.45;100835.34;4954017;28;46282;-84
2022/03/11 01:51:38;;;;;;;;;14.33;12.33;;;;;14.08;43.54;100838.03;5027687;28;45443;-84
2022/03/11 01:54:04;;;;;;;;;15.00;14.00;;;;;13.81;43.97;100791.34;5075541;28;45411;-84
2022/03/11 01:56:30;;;;;;;;;17.00;17.00;;;;;14.24;43.58;100872.00;5076307;28;45291;-84
2022/03/11 01:58:56;;;;;;;;;19.67;18.67;;;;;13.82;43.68;100806.50;5075060;28;45488;-84
2022/03/11 02:01:23;;;;;;;;;17.33;17.00;;;;;13.62;44.16;100770.94;5063154;28;45558;-84
2022/03/11 02:03:49;;;;;;;;;14.67;13.00;;;;;14.21;44.06;100858.75;5055515;28;45570;-84
2022/03/11 02:06:15;;;;;;;;;16.33;15.00;;;;;13.89;44.09;100807.88;5055185;28;45467;-84
2022/03/11 02:08:42;;;;;;;;;10.67;10.67;;;;;14.20;44.28;100859.72;5037429;28;46695;-84
2022/03/11 02:11:09;;;;;;;;;12.00;12.00;;;;;14.18;44.11;100859.81;5029879;28;45329;-84
2022/03/11 02:13:55;;;;;;;;;13.67;12.00;;;;;13.91;44.02;100822.06;5035060;28;45592;-84
2022/03/11 02:16:32;;;;;;;;;18.33;16.33;;;;;14.17;44.27;100863.44;5035465;28;45624;-83
2022/03/11 02:18:59;;;;;;;;;16.00;16.00;;;;;13.78;44.24;100795.06;5035123;28;46663;-84
2022/03/11 02:21:28;;;;;;;;;20.00;18.00;;;;;14.15;44.27;100873.41;5035023;28;45369;-84
2022/03/11 02:23:59;;;;;;;;;19.33;18.00;;;;;14.16;44.19;100869.75;5003925;28;45269;-84
2022/03/11 02:26:28;;;;;;;;;22.33;18.33;;;;;14.14;44.15;100872.53;5017697;28;45620;-84
2022/03/11 02:28:57;;;;;;;;;13.33;13.33;;;;;14.02;44.25;100842.88;5031900;27;46342;-84
2022/03/11 02:31:26;;;;;;;;;16.67;13.67;;;;;14.12;44.31;100861.03;5037058;28;45438;-84
2022/03/11 02:33:52;;;;;;;;;21.00;18.00;;;;;14.11;44.58;100853.06;5015919;28;45363;-84
2022/03/11 02:36:18;;;;;;;;;9.67;9.67;;;;;13.73;44.68;100784.63;5035510;28;45587;-84
2022/03/11 02:38:44;;;;;;;;;17.00;12.00;;;;;13.89;43.85;100807.88;5037167;27;46026;-85
2022/03/11 02:41:09;;;;;;;;;15.67;14.33;;;;;13.68;44.51;100778.66;5106418;27;45321;-84
2022/03/11 02:43:36;;;;;;;;;14.33;14.33;;;;;13.57;44.54;100753.44;5044343;27;45490;-84
2022/03/11 02:46:01;;;;;;;;;14.00;10.67;;;;;14.11;44.57;100840.53;5057602;28;45472;-84
2022/03/11 02:48:27;;;;;;;;;17.00;17.00;;;;;13.69;44.39;100779.50;5039126;28;46403;-84
2022/03/11 02:50:52;;;;;;;;;16.67;15.67;;;;;14.06;44.06;100842.59;5057112;28;45496;-84
2022/03/11 02:53:17;;;;;;;;;16.00;15.00;;;;;13.87;44.67;100810.63;5038567;28;45540;-84
2022/03/11 02:55:43;;;;;;;;;19.67;16.33;;;;;13.60;44.85;100766.63;5057345;28;45688;-84
2022/03/11 02:58:09;;;;;;;;;14.67;12.33;;;;;13.69;44.95;100792.91;5056949;28;45856;-84
2022/03/11 03:00:34;;;;;;;;;16.33;15.00;;;;;13.81;44.82;100816.31;5057197;28;45351;-84
2022/03/11 03:03:00;;;;;;;;;17.33;14.33;;;;;13.86;45.04;100826.78;5050077;28;45414;-84
2022/03/11 03:05:25;;;;;;;;;19.00;16.67;;;;;13.60;44.95;100791.63;5036930;28;45309;-84
2022/03/11 03:07:50;;;;;;;;;20.00;16.33;;;;;13.49;45.18;100769.94;5018665;27;47455;-84
2022/03/11 03:10:16;;;;;;;;;16.33;14.33;;;;;13.38;45.19;100745.56;5038076;28;45301;-84
2022/03/11 03:12:41;;;;;;;;;17.33;16.00;;;;;13.42;45.10;100755.16;5056982;28;45318;-84
2022/03/11 03:15:08;;;;;;;;;10.67;10.67;;;;;13.72;45.66;100808.84;5052859;28;45271;-85
2022/03/11 03:17:34;;;;;;;;;20.00;16.67;;;;;13.70;45.58;100805.38;5028314;28;46193;-84
2022/03/11 03:20:00;;;;;;;;;18.33;16.33;;;;;13.65;45.85;100808.31;5016588;28;45336;-84
2022/03/11 03:22:25;;;;;;;;;13.33;13.00;;;;;13.70;46.21;100802.69;5029090;28;45548;-84
2022/03/11 03:24:51;;;;;;;;;6.33;6.00;;;;;13.40;45.90;100743.66;5035410;28;45488;-85
2022/03/11 03:27:17;;;;;;;;;17.67;12.33;;;;;13.39;45.93;100740.13;5035414;28;46296;-84
2022/03/11 03:29:43;;;;;;;;;11.67;11.67;;;;;13.61;46.02;100768.38;5035877;28;45429;-85
2022/03/11 03:32:09;;;;;;;;;16.67;14.00;;;;;13.61;46.09;100784.44;5036636;28;45338;-85
2022/03/11 03:34:36;;;;;;;;;15.00;14.67;;;;;13.59;46.18;100783.66;5018587;27;45562;-84
2022/03/11 03:37:08;;;;;;;;;15.67;14.00;;;;;13.57;46.38;100781.06;5119956;27;46081;-85
2022/03/11 03:39:34;;;;;;;;;16.67;16.67;;;;;13.13;46.21;100724.59;5118985;27;45485;-85
2022/03/11 03:42:00;;;;;;;;;14.33;14.33;;;;;13.40;46.03;100767.75;5098442;27;45542;-85
2022/03/11 03:44:25;;;;;;;;;16.67;13.67;;;;;13.24;46.44;100740.94;5036545;28;45506;-85
2022/03/11 03:46:51;;;;;;;;;21.67;18.00;;;;;13.33;46.81;100772.59;5036142;28;46072;-85
2022/03/11 03:49:16;;;;;;;;;18.00;16.00;;;;;12.91;46.63;100709.72;5036501;28;45361;-84
2022/03/11 03:51:42;;;;;;;;;17.67;14.67;;;;;12.99;46.66;100722.66;5036318;28;45360;-84
2022/03/11 03:54:11;;;;;;;;;19.00;19.00;;;;;13.15;47.03;100758.34;5036596;28;45195;-84
2022/03/11 03:56:38;;;;;;;;;25.33;18.33;;;;;13.20;46.71;100772.34;5036161;28;45952;-84
2022/03/11 03:59:05;;;;;;;;;17.67;16.00;;;;;12.55;47.44;100667.06;5036351;28;45405;-84
2022/03/11 04:01:34;;;;;;;;;18.00;18.00;;;;;13.14;47.52;100770.00;5035854;28;45399;-84
2022/03/11 04:04:11;;;;;;;;;22.00;19.33;;;;;13.07;47.27;100753.41;5035181;28;45482;-84
2022/03/11 04:06:38;;;;;;;;;20.00;18.33;;;;;13.19;47.49;100778.66;5035916;28;46450;-84
2022/03/11 04:09:06;;;;;;;;;19.00;17.67;;;;;13.15;47.44;100774.41;5034521;28;45429;-84
2022/03/11 04:11:32;;;;;;;;;15.00;13.67;;;;;13.07;47.70;100772.16;5036121;28;45444;-84
2022/03/11 04:13:58;;;;;;;;;18.00;18.00;;;;;12.95;47.73;100748.75;5036583;27;45206;-85
2022/03/11 04:16:24;;;;;;;;;20.33;18.33;;;;;12.59;48.14;100696.25;5018678;28;48623;-85
2022/03/11 04:18:50;;;;;;;;;17.33;16.00;;;;;12.54;48.20;100676.91;5028096;28;45312;-84
2022/03/11 04:21:17;;;;;;;;;21.33;16.00;;;;;12.77;48.05;100712.28;5018267;28;45383;-84
2022/03/11 04:23:44;;;;;;;;;16.67;16.67;;;;;13.06;48.22;100761.53;5036201;27;45410;-85
2022/03/11 04:26:09;;;;;;;;;20.00;18.00;;;;;13.03;48.25;100762.56;5017944;28;47631;-84
2022/03/11 04:28:35;;;;;;;;;17.67;16.00;;;;;12.67;48.53;100710.09;5035609;28;45473;-84
2022/03/11 04:31:07;;;;;;;;;16.00;15.67;;;;;13.00;48.75;100761.88;5018716;27;45484;-85
2022/03/11 04:33:33;;;;;;;;;15.33;15.33;;;;;12.98;48.78;100763.75;5035865;28;45404;-84
2022/03/11 04:35:59;;;;;;;;;14.33;12.67;;;;;12.87;48.59;100737.56;5036241;28;46448;-84
2022/03/11 04:38:24;;;;;;;;;16.00;14.67;;;;;12.61;49.16;100706.88;5027364;28;45472;-84
2022/03/11 04:40:49;;;;;;;;;15.67;15.67;;;;;12.70;48.96;100721.56;5013451;28;45307;-84
2022/03/11 04:43:15;;;;;;;;;14.00;14.00;;;;;12.63;49.32;100710.31;4998625;28;45398;-84
2022/03/11 04:45:40;;;;;;;;;15.33;14.67;;;;;12.41;49.25;100678.53;5031242;27;47600;-84
2022/03/11 04:48:06;;;;;;;;;16.67;14.00;;;;;12.85;49.77;100758.19;5101535;27;45447;-85
2022/03/11 04:50:31;;;;;;;;;16.33;13.33;;;;;12.33;49.28;100686.06;5059753;27;45441;-84
2022/03/11 04:52:57;;;;;;;;;15.67;14.67;;;;;12.40;49.61;100695.47;5035749;28;45407;-84
2022/03/11 04:55:22;;;;;;;;;15.33;14.33;;;;;12.40;49.67;100690.13;5035241;28;46301;-84
2022/03/11 04:57:48;;;;;;;;;16.00;12.33;;;;;12.64;49.86;100738.78;5035143;28;45373;-83
2022/03/11 05:00:14;;;;;;;;;18.67;12.33;;;;;12.37;50.22;100695.66;5035759;28;45396;-84
2022/03/11 05:02:44;;;;;;;;;12.00;12.00;;;;;12.37;49.97;100688.50;5018136;28;45577;-84
2022/03/11 05:05:12;;;;;;;;;15.67;13.33;;;;;12.59;50.09;100731.00;5014205;28;47400;-84
2022/03/11 05:07:38;;;;;;;;;11.67;11.67;;;;;12.24;50.16;100668.69;5014447;28;45291;-84
2022/03/11 05:10:05;;;;;;;;;13.00;11.67;;;;;12.48;50.48;100714.69;5035385;28;45221;-84
2022/03/11 05:12:31;;;;;;;;;13.33;12.00;;;;;12.68;50.51;100741.22;5035481;28;45406;-84
2022/03/11 05:14:56;;;;;;;;;14.33;13.00;;;;;12.29;50.42;100682.69;5019508;28;46321;-84
2022/03/11 05:17:22;;;;;;;;;8.33;8.33;;;;;12.20;50.37;100668.00;5037543;27;45430;-84
2022/03/11 05:19:47;;;;;;;;;12.67;11.33;;;;;12.20;50.47;100670.66;5055709;28;45364;-84
2022/03/11 05:22:12;;;;;;;;;16.33;12.00;;;;;12.20;50.31;100661.78;5055720;28;45473;-84
2022/03/11 05:24:39;;;;;;;;;12.67;11.67;;;;;12.54;50.79;100727.69;5054884;27;46368;-84
2022/03/11 05:27:05;;;;;;;;;12.00;11.00;;;;;12.46;51.00;100714.75;5055016;28;45426;-84
2022/03/11 05:29:32;;;;;;;;;11.33;11.33;;;;;12.52;50.70;100726.06;5037138;28;45396;-84
2022/03/11 05:31:58;;;;;;;;;11.67;11.67;;;;;12.16;50.65;100665.56;5055469;28;45360;-84
2022/03/11 05:34:23;;;;;;;;;15.00;13.00;;;;;12.48;51.08;100714.69;5037121;28;48739;-84
2022/03/11 05:36:48;;;;;;;;;13.00;10.33;;;;;12.09;50.68;100648.97;5037106;27;45471;-84
2022/03/11 05:39:14;;;;;;;;;13.00;10.67;;;;;12.08;51.06;100644.59;5049725;28;45499;-84
2022/03/11 05:41:39;;;;;;;;;13.00;11.33;;;;;12.06;51.34;100638.47;5035275;28;45340;-84
2022/03/11 05:44:05;;;;;;;;;13.00;9.67;;;;;12.24;51.16;100674.91;5034769;27;46519;-84
2022/03/11 05:46:31;;;;;;;;;12.00;9.67;;;;;12.46;50.87;100700.53;5020163;27;45344;-84
2022/03/11 05:48:56;;;;;;;;;13.67;11.00;;;;;12.44;51.31;100705.94;4997191;28;45865;-84
2022/03/11 05:51:21;;;;;;;;;12.00;10.00;;;;;11.59;51.11;100573.16;5005784;28;45583;-84
2022/03/11 05:53:47;;;;;;;;;14.00;9.33;;;;;12.35;51.33;100695.72;5017361;28;46302;-84
2022/03/11 05:56:12;;;;;;;;;12.67;11.33;;;;;12.43;51.24;100714.03;5016362;28;45442;-84
2022/03/11 05:58:37;;;;;;;;;10.67;10.67;;;;;11.94;51.15;100623.03;5025740;28;45695;-84
2022/03/11 06:01:03;;;;;;;;;7.67;7.67;;;;;12.19;51.32;100671.59;5038002;28;45556;-84
2022/03/11 06:03:29;;;;;;;;;8.67;8.67;;;;;11.55;51.57;100568.03;5037742;28;45366;-84
2022/03/11 06:05:55;;;;;;;;;9.67;9.67;;;;;12.04;51.51;100653.69;5016567;28;45466;-83
2022/03/11 06:08:21;;;;;;;;;12.00;10.67;;;;;12.27;51.54;100697.06;5017655;28;45558;-84
2022/03/11 06:10:47;;;;;;;;;10.67;10.67;;;;;12.44;51.42;100715.78;5017789;28;45242;-84
2022/03/11 06:13:14;;;;;;;;;8.67;8.00;;;;;12.33;51.20;100686.91;5017494;28;45917;-84
2022/03/11 06:15:40;;;;;;;;;12.00;12.00;;;;;12.36;51.20;100708.16;5054330;28;45403;-84
2022/03/11 06:18:05;;;;;;;;;10.67;10.67;;;;;11.74;51.58;100598.19;5036679;28;45345;-84
2022/03/11 06:20:32;;;;;;;;;11.33;10.00;;;;;12.18;51.58;100675.22;5038053;28;45506;-84
2022/03/11 06:22:58;;;;;;;;;10.67;9.67;;;;;11.40;51.92;100541.19;5037098;28;45657;-83
2022/03/11 06:25:23;;;;;;;;;12.67;10.67;;;;;12.33;51.50;100686.06;5037661;27;45482;-83
2022/03/11 06:27:49;;;;;;;;;9.67;9.33;;;;;12.07;51.62;100642.84;5037507;28;45416;-84
2022/03/11 06:30:14;;;;;;;;;10.00;8.67;;;;;11.71;51.69;100573.47;5037789;28;45352;-83
2022/03/11 06:32:41;;;;;;;;;13.33;11.00;;;;;11.82;51.50;100596.00;5050379;28;46090;-83
2022/03/11 06:35:08;;;;;;;;;9.67;9.33;;;;;11.97;51.43;100620.22;5048202;28;45389;-84
2022/03/11 06:37:33;;;;;;;;;6.67;5.00;;;;;12.28;51.46;100667.59;5035987;28;45475;-84
2022/03/11 06:39:59;;;;;;;;;11.33;9.33;;;;;11.93;51.62;100608.84;5035577;28;45644;-84
2022/03/11 06:42:24;;;;;;;;;11.33;9.67;;;;;12.67;54.13;100694.03;5034723;27;46433;-81
2022/03/11 06:44:50;;;;;;;;;10.67;8.67;;;;;12.81;54.26;100684.41;5034331;28;45435;-80
2022/03/11 06:47:15;;;;;;;;;10.33;8.33;;;;;13.10;52.74;100694.38;5034498;28;45475;-80
2022/03/11 06:49:40;;;;;;;;;13.00;11.67;;;;;13.23;50.59;100683.88;5032651;28;45522;-80
2022/03/11 06:52:06;;;;;;;;;8.33;8.33;;;;;13.33;51.96;100688.75;5033916;28;45572;-79
2022/03/11 06:54:31;;;;;;;;;8.33;8.33;;;;;13.21;49.88;100655.47;5029928;28;45495;-80
2022/03/11 06:56:57;;;;;;;;;24.00;21.33;;;;;13.28;49.61;100664.91;5033153;28;45496;-80
2022/03/11 06:59:22;;;;;;;;;13.33;13.33;;;;;13.39;49.55;100662.50;5034728;28;45540;-82
2022/03/11 07:01:47;;;;;;;;;9.67;8.33;;;;;13.59;50.97;100680.09;5033803;28;46067;-80
2022/03/11 07:04:13;;;;;;;;;8.67;8.67;;;;;13.62;50.68;100649.59;5032716;28;45575;-81
2022/03/11 07:06:38;;;;;;;;;9.00;8.00;;;;;13.86;50.47;100661.56;5034890;28;45633;-82
2022/03/11 07:09:03;;;;;;;;;10.33;8.67;;;;;13.79;49.67;100636.09;5029288;27;45525;-81
2022/03/11 07:11:31;;;;;;;;;6.67;6.67;;;;;14.10;48.61;100690.53;5020210;27;45588;-81
2022/03/11 07:13:56;;;;;;;;;8.00;7.00;;;;;13.64;48.38;100608.38;5016160;27;45428;-80
2022/03/11 07:16:21;;;;;;;;;8.67;8.00;;;;;13.65;49.31;100610.09;5024970;28;45868;-81
2022/03/11 07:18:47;;;;;;;;;10.67;9.67;;;;;13.67;48.55;100624.28;5035769;28;45573;-80
2022/03/11 07:21:12;;;;;;;;;8.00;8.00;;;;;14.01;48.14;100675.00;5035338;28;45742;-80
2022/03/11 07:23:38;;;;;;;;;8.00;6.00;;;;;14.02;49.61;100674.88;5035755;28;45388;-81
2022/03/11 07:26:03;;;;;;;;;9.67;9.00;;;;;14.11;48.99;100671.66;5035559;28;45382;-82
2022/03/11 07:28:29;;;;;;;;;7.67;7.67;;;;;14.05;48.09;100650.59;5036275;28;45416;-83
2022/03/11 07:30:55;;;;;;;;;9.00;9.00;;;;;13.89;48.01;100620.31;5036063;28;45383;-83
2022/03/11 07:33:20;;;;;;;;;9.00;9.00;;;;;13.95;47.89;100644.06;5009589;28;45511;-83
2022/03/11 07:35:46;;;;;;;;;10.33;8.67;;;;;13.94;48.38;100637.84;5002457;28;45304;-83
2022/03/11 07:38:12;;;;;;;;;7.00;7.00;;;;;13.83;49.74;100613.50;5018085;27;45651;-86
2022/03/11 07:40:37;;;;;;;;;11.67;8.33;;;;;13.61;48.14;100560.34;5019458;28;46405;-86
2022/03/11 07:43:03;;;;;;;;;8.67;7.33;;;;;13.92;48.94;100604.06;5019645;27;45415;-90
2022/03/11 07:45:28;;;;;;;;;8.00;5.33;;;;;13.99;48.02;100602.72;4998736;28;45341;-84
2022/03/11 07:47:54;;;;;;;;;5.33;5.33;;;;;14.21;48.25;100647.88;5015977;28;45596;-80
2022/03/11 07:50:19;;;;;;;;;14.00;14.00;;;;;14.26;48.84;100645.78;4997266;28;47205;-80
2022/03/11 07:52:44;;;;;;;;;17.67;11.67;;;;;14.05;47.37;100613.09;5012306;27;45541;-85
2022/03/11 07:55:10;;;;;;;;;12.00;12.00;;;;;14.25;47.31;100643.19;5040844;27;45491;-82
2022/03/11 07:57:36;;;;;;;;;12.67;8.00;;;;;14.26;47.43;100647.59;5041466;27;45501;-85
2022/03/11 08:00:08;;;;;;;;;11.33;9.67;;;;;13.98;47.50;100605.50;5007951;28;46365;-83
2022/03/11 08:02:34;;;;;;;;;2.00;2.00;;;;;14.08;47.48;100610.22;5019457;27;45493;-79
2022/03/11 08:04:59;;;;;;;;;8.33;8.33;;;;;13.88;47.13;100586.44;5019313;28;45645;-84
2022/03/11 08:07:25;;;;;;;;;16.67;16.67;;;;;13.74;47.38;100557.78;5011329;27;45502;-87
2022/03/11 08:09:50;;;;;;;;;8.67;8.33;;;;;13.56;47.52;100518.75;5028090;27;48179;-83
2022/03/11 08:12:15;;;;;;;;;7.00;7.00;;;;;13.67;47.46;100537.69;5032717;27;45435;-83
2022/03/11 08:14:41;;;;;;;;;10.00;8.33;;;;;14.14;47.42;100633.09;5012865;28;45416;-81
2022/03/11 08:17:07;;;;;;;;;11.67;9.00;;;;;13.64;47.60;100548.59;5032741;28;45451;-83
2022/03/11 08:19:33;;;;;;;;;9.00;9.00;;;;;13.66;47.39;100552.91;5034326;28;45449;-82
2022/03/11 08:21:58;;;;;;;;;10.33;8.67;;;;;13.99;47.41;100596.50;5029532;28;45478;-82
2022/03/11 08:24:24;;;;;;;;;9.33;7.67;;;;;13.70;47.47;100549.09;5032178;27;45463;-83
2022/03/11 08:26:50;;;;;;;;;15.67;14.33;;;;;13.68;47.41;100550.13;5034152;28;45547;-83
2022/03/11 08:29:17;;;;;;;;;8.67;8.67;;;;;14.09;47.43;100605.72;5032701;28;45564;-82
2022/03/11 08:31:43;;;;;;;;;9.00;8.33;;;;;14.05;47.42;100588.97;5057565;27;45621;-83
2022/03/11 08:34:09;;;;;;;;;6.00;6.00;;;;;14.32;47.41;100609.66;5032862;28;45662;-79
2022/03/11 08:36:34;;;;;;;;;9.00;9.00;;;;;14.11;46.73;100569.81;5032119;28;45487;-79
2022/03/11 08:38:59;;;;;;;;;6.67;5.67;;;;;14.40;47.17;100598.47;5031886;28;45550;-79
2022/03/11 08:41:27;;;;;;;;;6.67;6.00;;;;;14.36;46.79;100587.94;5031595;28;45681;-80
2022/03/11 08:43:52;;;;;;;;;15.00;13.33;;;;;14.37;46.85;100564.66;5032238;28;45422;-80
2022/03/11 08:46:18;;;;;;;;;9.33;7.67;;;;;14.53;46.75;100586.03;5012791;27;45546;-81
2022/03/11 08:48:46;;;;;;;;;7.67;7.67;;;;;14.66;46.77;100611.16;5030335;27;45434;-81
2022/03/11 08:51:11;;;;;;;;;7.33;7.33;;;;;14.52;46.75;100579.81;5032428;28;45468;-82
2022/03/11 08:53:37;;;;;;;;;4.00;4.00;;;;;14.09;46.31;100493.16;5031009;28;45396;-83
2022/03/11 08:56:03;;;;;;;;;52.00;41.00;;;;;14.29;46.51;100526.75;5034011;27;45748;-84
2022/03/11 08:58:29;;;;;;;;;11.00;9.33;;;;;14.73;45.84;100588.34;5032951;28;46537;-85
2022/03/11 09:00:55;;;;;;;;;7.00;7.00;;;;;14.79;46.27;100552.19;5033248;28;45407;-85
2022/03/11 09:03:21;;;;;;;;;8.67;8.67;;;;;14.87;45.75;100565.16;5033609;27;45378;-84
2022/03/11 09:05:46;;;;;;;;;11.67;11.67;;;;;14.95;45.69;100558.31;5032782;27;45357;-85
2022/03/11 09:08:11;;;;;;;;;6.00;5.00;;;;;15.04;45.22;100554.16;5032832;28;46461;-84
2022/03/11 09:10:37;;;;;;;;;5.00;4.67;;;;;15.16;45.32;100565.91;5032061;28;45372;-85
2022/03/11 09:13:02;;;;;;;;;3.33;3.33;;;;;14.44;44.93;100431.06;5033888;28;45399;-84
2022/03/11 09:15:28;;;;;;;;;3.33;3.33;;;;;15.25;44.40;100553.72;5102585;27;45644;-84
2022/03/11 09:17:54;;;;;;;;;4.67;4.67;;;;;15.41;44.50;100571.38;5032641;28;46047;-84
2022/03/11 09:20:19;;;;;;;;;9.33;7.67;;;;;15.61;44.10;100571.88;5033096;27;45387;-84
2022/03/11 09:22:45;;;;;;;;;4.33;4.33;;;;;15.51;43.92;100525.13;5032681;28;45455;-85
2022/03/11 09:25:12;;;;;;;;;9.33;9.33;;;;;15.91;44.10;100563.56;5033422;28;45448;-85
2022/03/11 09:27:39;;;;;;;;;6.00;6.00;;;;;15.85;43.22;100523.69;5031868;28;46241;-84
2022/03/11 09:30:06;;;;;;;;;3.00;3.00;;;;;16.17;43.07;100568.97;5035040;28;45430;-85
2022/03/11 09:32:31;;;;;;;;;2.67;2.67;;;;;16.33;42.81;100550.78;5061796;27;45352;-82
2022/03/11 09:34:58;;;;;;;;;2.67;2.67;;;;;16.65;42.28;100551.19;5033465;28;45590;-83
2022/03/11 09:37:23;;;;;;;;;4.00;4.00;;;;;16.75;42.01;100558.59;5033403;27;45320;-84
2022/03/11 09:39:49;;;;;;;;;3.33;2.00;;;;;16.64;41.68;100541.38;5030723;27;45330;-82
2022/03/11 09:42:14;;;;;;;;;2.00;2.00;;;;;16.58;41.65;100581.34;5033406;28;45265;-85
2022/03/11 09:44:40;;;;;;;;;1.67;1.67;;;;;16.24;41.91;100546.91;5033995;28;45655;-84
2022/03/11 09:47:07;;;;;;;;;4.00;4.00;;;;;16.15;42.51;100560.16;5032646;28;45499;-85
2022/03/11 09:49:35;;;;;;;;;6.00;3.00;;;;;15.78;42.47;100520.56;5032324;28;45371;-86
2022/03/11 09:52:03;;;;;;;;;7.33;6.00;;;;;15.88;42.94;100544.13;5014504;28;45577;-86
2022/03/11 09:54:29;;;;;;;;;6.00;5.00;;;;;15.73;43.29;100530.78;5033058;28;45341;-85
2022/03/11 09:56:55;;;;;;;;;4.00;3.00;;;;;15.72;43.54;100538.94;5014387;28;46479;-85
2022/03/11 09:59:21;;;;;;;;;4.00;3.00;;;;;15.59;43.79;100526.31;5032506;28;45476;-85
2022/03/11 10:01:46;;;;;;;;;3.00;3.00;;;;;15.34;44.22;100483.28;5032207;28;45708;-85
2022/03/11 10:04:11;;;;;;;;;2.33;2.33;;;;;15.50;44.10;100523.38;5032270;28;45186;-87
2022/03/11 10:06:42;;;;;;;;;5.00;4.00;;;;;15.53;45.81;100542.00;5032281;28;45648;-86
2022/03/11 10:09:19;;;;;;;;;11.00;9.00;;;;;15.37;46.78;100520.66;5032073;28;45452;-85
2022/03/11 10:11:50;;;;;;;;;16.67;15.33;;;;;14.99;47.22;100448.94;5033008;27;45744;-84
2022/03/11 10:14:16;;;;;;;;;19.33;16.67;;;;;15.16;49.37;100486.22;5014298;28;45340;-84
2022/03/11 10:16:44;;;;;;;;;8.00;6.67;;;;;15.17;49.41;100505.88;5031987;28;45487;-86
2022/03/11 10:19:13;;;;;;;;;8.00;6.67;;;;;14.83;48.77;100477.75;5031756;28;45418;-85
2022/03/11 10:21:42;;;;;;;;;6.67;5.00;;;;;15.14;50.22;100532.94;5032095;28;45714;-84
2022/03/11 10:24:10;;;;;;;;;3.00;3.00;;;;;15.04;48.16;100513.91;5014778;28;45324;-84
2022/03/11 10:26:39;;;;;;;;;3.00;3.00;;;;;15.16;48.95;100528.34;5031839;28;46227;-84
2022/03/11 10:29:08;;;;;;;;;6.00;5.67;;;;;15.25;48.87;100529.56;5031555;28;46547;-85
2022/03/11 10:31:36;;;;;;;;;3.67;3.67;;;;;15.43;48.03;100492.53;5010981;28;45707;-85
2022/03/11 10:34:18;;;;;;;;;5.00;5.00;;;;;15.90;46.96;100508.09;5030147;27;45538;-85
2022/03/11 10:36:47;;;;;;;;;6.00;5.00;;;;;15.76;47.17;100505.53;5031845;28;45506;-84
2022/03/11 10:39:14;;;;;;;;;6.67;5.00;;;;;15.68;47.21;100527.50;5033491;28;45644;-84
2022/03/11 10:41:40;;;;;;;;;5.67;4.00;;;;;15.59;47.47;100533.50;5038877;27;45482;-84
2022/03/11 10:44:09;;;;;;;;;6.33;4.00;;;;;15.28;47.28;100507.84;5034388;28;45415;-82
2022/03/11 10:46:35;;;;;;;;;3.00;3.00;;;;;15.38;47.89;100541.19;5037732;28;45446;-82
2022/03/11 10:49:01;;;;;;;;;2.67;2.00;;;;;15.08;48.22;100487.72;5036945;28;45356;-84
2022/03/11 10:51:29;;;;;;;;;3.33;3.00;;;;;15.32;49.67;100533.56;5035096;27;45307;-83
2022/03/11 10:53:55;;;;;;;;;3.00;3.00;;;;;15.30;50.93;100532.78;5034988;28;45499;-82
2022/03/11 10:56:29;;;;;;;;;2.00;2.00;;;;;15.06;52.53;100511.97;5034352;28;45992;-85
2022/03/11 10:58:56;;;;;;;;;4.00;4.00;;;;;14.71;52.60;100474.91;5013528;28;45788;-86
2022/03/11 11:01:42;;;;;;;;;5.00;1.67;;;;;15.12;52.67;100565.25;5027077;28;45314;-86
2022/03/11 11:04:09;;;;;;;;;3.33;2.67;;;;;14.94;52.16;100528.91;5034512;28;45945;-88
2022/03/11 11:06:37;;;;;;;;;3.00;3.00;;;;;14.32;52.73;100424.69;5063901;27;48823;-88
2022/03/11 11:09:04;;;;;;;;;9.00;9.00;;;;;14.65;53.32;100499.44;5016946;28;45507;-88
2022/03/11 11:11:31;;;;;;;;;7.33;6.00;;;;;14.87;54.84;100538.31;5034741;28;45464;-86